Startpagina
METAR-TAF:

METAR-TAF

Vliegvelden :

Islamabad, Pakistan

breedte: 33-37N, lengte: 073-06E, hoogte: 507 m

Actueel weer

Dit bericht is 1 uur en het 0 minuten geleden gemaakt, om 23:00 UTC
Wind 6 kt uit het oosten
Temperatuur 25°C
Vochtigheid 69%
Druk 1002 hPa
Zicht: 8000 m
Weinig wolken op 4000 ft

METAR: OPRN 172300Z 09006KT 8000 FEW040 25/19 Q1002 NOSIG RMK A2960 RH69

Tijdstip: 05:00 (00:00 UTC)

Verwachting

Dit bericht is 2 uur en het 30 minuten geleden gemaakt, om 21:30 UTC
Verwachting geldig van 18 om 00 UTC tot 19 om 06 UTC
Wind 10 kt uit het zuidzuidoosten
Zicht: 5000 m
Verspreide wolken op 4000 ft
Gebroken wolken op 10000 ft
Heiigheid
Tijdelijke
van 18 om 09 UTC tot 18 om 18 UTC
Zicht: 4000 m
Weinig wolken op 3000 ft, Cumulonimbus.
Verspreide wolken op 4000 ft
Verspreide wolken op 10000 ft
onweer

TAF: OPRN 172130Z 1800/1906 15010KT 5000 HZ SCT040 BKN100 TEMPO 1809/1818 4000 TS FEW030CB SCT040 SCT100

Waarnemingen en weersverwachtingen van meer dan 4000 vliegvelden (METAR en TAF).

De beschikbare stations zijn de gele en rode punten op de kaart.

Ga met uw muis naar het station om de naam te zien.

Klik dan om waarnemingen en weersverwachtingen te zien.

kaart wijzigen: klik op de groene knoppen met een zwart kruis om in te zoomen, op de groene knop met een streepje om uit te zoomen of op de groene pijlen voor aangrenzende kaarten.


METAR-TAF: